Chinook Pass
Chinook Pass
Latest observation 09/03 18:00 PDT
| Time (PDT) | Temp °F 6240' | Temp °F 5500' | RH % 6240' | RH % 5500' | Spd mph 6240' | Gust mph 6240' | Dir ° 6240' | Pcp1 in 5500' | PcpSum in 5500' | SnoHt in 5500' | EqTemp °F 5500' |
|---|---|---|---|---|---|---|---|---|---|---|---|
| 09/03 18:00 | 37 | 39 | 100 | 87 | 4 | 15 | 236 | 0.00 | 0.65 | -1.4 | 42 |
| 09/03 17:00 | 38 | 41 | 89 | 87 | 7 | 21 | 199 | 0.00 | 0.65 | -1.9 | 47 |
| 09/03 16:00 | 39 | 42 | 96 | 90 | 5 | 18 | 215 | 0.00 | 0.65 | -2.2 | 50 |
| 09/03 15:00 | 39 | 41 | 100 | 90 | 4 | 17 | 139 | 0.00 | 0.65 | -1.2 | 50 |
| 09/03 14:00 | 36 | 41 | 100 | 92 | 12 | 25 | 121 | 0.00 | 0.65 | -1.1 | 49 |
| 09/03 13:00 | 36 | 39 | 100 | 94 | 8 | 23 | 120 | 0.00 | 0.65 | -0.5 | 45 |
| 09/03 12:00 | 35 | 39 | 100 | 95 | 8 | 24 | 153 | 0.02 | 0.65 | -0.3 | 44 |
| 09/03 11:00 | 35 | 38 | 100 | 96 | 7 | 23 | 198 | 0.03 | 0.63 | -1.2 | 42 |
| 09/03 10:00 | 34 | 36 | 100 | 96 | 8 | 29 | 111 | 0.00 | 0.60 | 0.2 | 38 |
| 09/03 09:00 | 34 | 36 | 100 | 96 | 7 | 25 | 151 | 0.03 | 0.60 | -0.1 | 37 |
| 09/03 08:00 | 34 | 36 | 100 | 96 | 10 | 28 | 218 | 0.01 | 0.57 | -1.0 | 37 |
| 09/03 07:00 | 34 | 36 | 100 | 96 | 8 | 25 | 209 | 0.00 | 0.56 | -0.6 | 36 |
| 09/03 06:00 | 33 | 35 | 100 | 96 | 9 | 24 | 187 | 0.00 | 0.56 | 0.3 | 36 |
| 09/03 05:00 | 33 | 35 | 100 | 96 | 9 | 27 | 225 | 0.00 | 0.56 | -0.5 | 36 |
| 09/03 04:00 | 33 | 36 | 100 | 96 | 13 | 28 | 193 | 0.00 | 0.56 | -0.3 | 36 |
| 09/03 03:00 | 33 | 35 | 100 | 96 | 18 | 35 | 200 | 0.00 | 0.56 | -0.6 | 35 |
| 09/03 02:00 | 32 | 35 | 100 | 96 | 13 | 27 | 207 | 0.00 | 0.56 | -0.2 | 35 |
| 09/03 01:00 | 34 | 35 | 100 | 95 | 13 | 31 | 204 | 0.00 | 0.56 | -0.3 | 36 |
| 09/03 00:00 | 34 | 36 | 100 | 96 | 19 | 35 | 221 | 0.00 | 0.56 | 0.1 | 37 |
| 09/02 23:00 | 34 | 37 | 100 | 96 | 14 | 33 | 193 | 0.00 | 0.56 | -0.3 | 37 |
| 09/02 22:00 | 35 | 38 | 100 | 96 | 8 | 23 | 215 | 0.00 | 0.56 | 0.0 | 38 |
| 09/02 21:00 | 36 | 39 | 100 | 95 | 26 | 50 | 219 | 0.02 | 0.56 | -0.9 | 39 |
| 09/02 20:00 | 38 | 41 | 100 | 95 | 21 | 37 | 199 | 0.01 | 0.54 | -0.7 | 41 |
| 09/02 19:00 | 39 | 41 | 100 | 95 | 8 | 22 | 199 | 0.03 | 0.53 | -0.9 | 42 |
| 09/02 18:00 | 38 | 40 | 100 | 95 | 9 | 25 | 233 | 0.06 | 0.50 | -1.1 | 41 |
| 09/02 17:00 | 38 | 40 | 100 | 95 | 9 | 28 | 283 | 0.02 | 0.44 | -0.9 | 41 |
| 09/02 16:00 | 37 | 40 | 100 | 95 | 12 | 36 | 224 | 0.12 | 0.42 | -0.3 | 41 |
| 09/02 15:00 | 38 | 40 | 100 | 94 | 13 | 38 | 124 | 0.06 | 0.30 | -0.6 | 41 |
| 09/02 14:00 | 38 | 41 | 100 | 93 | 15 | 37 | 122 | 0.06 | 0.24 | 0.9 | 43 |
| 09/02 13:00 | 40 | 45 | 85 | 73 | 24 | 38 | 122 | 0.00 | 0.18 | -0.5 | 49 |
| 09/02 12:00 | 39 | 42 | 100 | 84 | 17 | 38 | 118 | 0.00 | 0.18 | -0.5 | 46 |
| 09/02 11:00 | 38 | 43 | 100 | 91 | 11 | 27 | 227 | 0.00 | 0.18 | -0.9 | 49 |
| 09/02 10:00 | 38 | 41 | 100 | 90 | 10 | 28 | 226 | 0.00 | 0.18 | -0.9 | 45 |
| 09/02 09:00 | 38 | 41 | 100 | 90 | 17 | 28 | 147 | 0.00 | 0.18 | -0.8 | 45 |
| 09/02 08:00 | 37 | 40 | 100 | 93 | 16 | 36 | 140 | 0.00 | 0.18 | -0.7 | 41 |
| 09/02 07:00 | 37 | 39 | 100 | 95 | 15 | 36 | 137 | 0.00 | 0.18 | -0.9 | 40 |
| 09/02 06:00 | 38 | 40 | 100 | 95 | 18 | 39 | 217 | 0.00 | 0.18 | -1.0 | 41 |
| 09/02 05:00 | 39 | 41 | 100 | 95 | 15 | 37 | 226 | 0.00 | 0.18 | -1.1 | 42 |
| 09/02 04:00 | 39 | 41 | 100 | 95 | 15 | 25 | 222 | 0.00 | 0.18 | -0.6 | 42 |
| 09/02 03:00 | 39 | 42 | 100 | 95 | 18 | 31 | 215 | 0.00 | 0.18 | -0.9 | 42 |
| 09/02 02:00 | 40 | 42 | 100 | 94 | 19 | 32 | 202 | 0.00 | 0.18 | -1.0 | 42 |
| 09/02 01:00 | 40 | 43 | 100 | 95 | 10 | 30 | 255 | 0.00 | 0.18 | -0.6 | 43 |
| 09/02 00:00 | 40 | 42 | 100 | 94 | 10 | 24 | 214 | 0.00 | 0.18 | -0.7 | 43 |
| 09/01 23:00 | 40 | 43 | 100 | 94 | 7 | 22 | 221 | 0.00 | 0.18 | -0.9 | 43 |
| 09/01 22:00 | 41 | 44 | 100 | 94 | 10 | 26 | 246 | 0.00 | 0.18 | -0.5 | 44 |
| 09/01 21:00 | 42 | 45 | 100 | 94 | 16 | 31 | 228 | 0.00 | 0.18 | -0.6 | 45 |
| 09/01 20:00 | 43 | 45 | 100 | 93 | 15 | 30 | 224 | 0.00 | 0.18 | -0.9 | 46 |
| 09/01 19:00 | 44 | 47 | 100 | 91 | 22 | 30 | 207 | 0.00 | 0.18 | -1.3 | 49 |
| 09/01 18:00 | 45 | 48 | 100 | 89 | 24 | 33 | 208 | 0.00 | 0.18 | -0.9 | 51 |
| 09/01 17:00 | 47 | 50 | 100 | 85 | 23 | 29 | 208 | 0.00 | 0.18 | -1.0 | 56 |
| 09/01 16:00 | 49 | 58 | 98 | 70 | 17 | 29 | 223 | 0.00 | 0.18 | -0.8 | 64 |
| 09/01 15:00 | 52 | 59 | 78 | 66 | 9 | 23 | 212 | 0.00 | 0.18 | -0.7 | 75 |
| 09/01 14:00 | 54 | 60 | 64 | 62 | 9 | 15 | 209 | 0.00 | 0.18 | -1.1 | 76 |
| 09/01 13:00 | 53 | 58 | 73 | 65 | 9 | 16 | 178 | 0.00 | 0.18 | -0.9 | 75 |
| 09/01 12:00 | 55 | 57 | 60 | 65 | 1 | 7 | 240 | 0.00 | 0.18 | -1.3 | 76 |
| 09/01 11:00 | 53 | 55 | 70 | 67 | 0 | 1 | 252 | 0.00 | 0.18 | -0.8 | 71 |
| 09/01 10:00 | 56 | 51 | 56 | 74 | 0 | 1 | 26 | 0.00 | 0.18 | -1.1 | 57 |
| 09/01 09:00 | 53 | 51 | 58 | 68 | 0 | 0 | 315 | 0.00 | 0.18 | -1.0 | 55 |
| 09/01 08:00 | 51 | 51 | 68 | 66 | 0 | 0 | 310 | 0.00 | 0.18 | -0.8 | 52 |
| 09/01 07:00 | 51 | 50 | 67 | 70 | 0 | 0 | 303 | 0.00 | 0.18 | -0.9 | 50 |
| 09/01 06:00 | 51 | 51 | 60 | 71 | 2 | 13 | 238 | 0.00 | 0.18 | -1.0 | 49 |
| 09/01 05:00 | 52 | 52 | 57 | 66 | 4 | 12 | 217 | 0.00 | 0.18 | -0.9 | 50 |
| 09/01 04:00 | 55 | 55 | 45 | 51 | 4 | 11 | 205 | 0.00 | 0.18 | -0.5 | 52 |
| 09/01 03:00 | 57 | 55 | 38 | 48 | 14 | 18 | 183 | 0.00 | 0.18 | -0.6 | 53 |
| 09/01 02:00 | 55 | 55 | 47 | 48 | 12 | 18 | 130 | 0.00 | 0.18 | -0.9 | 52 |
| 09/01 01:00 | 55 | 56 | 46 | 47 | 13 | 20 | 99 | 0.00 | 0.18 | -0.9 | 52 |
| 09/01 00:00 | 53 | 55 | 50 | 51 | 14 | 19 | 85 | 0.00 | 0.18 | -0.5 | 52 |
| 08/31 23:00 | 54 | 55 | 54 | 48 | 11 | 15 | 89 | 0.00 | 0.18 | -1.1 | 52 |
| 08/31 22:00 | 54 | 56 | 56 | 65 | 12 | 17 | 68 | 0.00 | 0.18 | -1.1 | 54 |
| 08/31 21:00 | 55 | 57 | 47 | 45 | 12 | 19 | 59 | 0.00 | 0.18 | -0.7 | 56 |
| 08/31 20:00 | 56 | 59 | 45 | 41 | 12 | 19 | 59 | 0.00 | 0.18 | -0.8 | 58 |
| 08/31 19:00 | 58 | 60 | 42 | 40 | 6 | 16 | 56 | 0.00 | 0.18 | -0.6 | 61 |
| 08/31 18:00 | 60 | 63 | 37 | 37 | 7 | 20 | 78 | 0.00 | 0.18 | -0.7 | 66 |
| 08/31 17:00 | 66 | 69 | 26 | 28 | 11 | 30 | 222 | 0.00 | 0.18 | -0.4 | 83 |
| 08/31 16:00 | 65 | 68 | 27 | 29 | 9 | 25 | 219 | 0.00 | 0.18 | -0.7 | 71 |
| 08/31 15:00 | 65 | 68 | 30 | 31 | 7 | 20 | 181 | 0.00 | 0.18 | -0.9 | 81 |
| 08/31 14:00 | 63 | 66 | 34 | 35 | 13 | 30 | 103 | 0.00 | 0.18 | -0.7 | 83 |
| 08/31 13:00 | 63 | 63 | 39 | 41 | 10 | 24 | 71 | 0.00 | 0.18 | -1.3 | 78 |
| 08/31 12:00 | 61 | 59 | 45 | 50 | 12 | 18 | 70 | 0.00 | 0.18 | -0.3 | 76 |
| 08/31 11:00 | 54 | 55 | 60 | 59 | 16 | 25 | 70 | 0.00 | 0.18 | -1.1 | 70 |
| 08/31 10:00 | 55 | 53 | 53 | 63 | 17 | 24 | 79 | 0.00 | 0.18 | -0.6 | 55 |
| 08/31 09:00 | 53 | 52 | 56 | 65 | 15 | 21 | 68 | 0.00 | 0.18 | -0.8 | 53 |
| 08/31 08:00 | 51 | 50 | 55 | 69 | 16 | 24 | 72 | 0.00 | 0.18 | -0.3 | 51 |
| 08/31 07:00 | 50 | 48 | 57 | 68 | 14 | 22 | 81 | 0.00 | 0.18 | -0.4 | 47 |
| 08/31 06:00 | 50 | 50 | 59 | 62 | 12 | 23 | 85 | 0.00 | 0.18 | -0.6 | 47 |
| 08/31 05:00 | 51 | 51 | 52 | 58 | 8 | 12 | 94 | 0.00 | 0.18 | -0.7 | 48 |
| 08/31 04:00 | 52 | 51 | 53 | 56 | 15 | 22 | 157 | 0.00 | 0.18 | -0.3 | 48 |
| 08/31 03:00 | 52 | 50 | 52 | 61 | 20 | 25 | 167 | 0.00 | 0.18 | -0.5 | 48 |
| 08/31 02:00 | 51 | 50 | 59 | 67 | 15 | 23 | 150 | 0.00 | 0.18 | -0.6 | 47 |
| 08/31 01:00 | 52 | 50 | 62 | 68 | 13 | 18 | 185 | 0.00 | 0.18 | -0.5 | 47 |
| 08/31 00:00 | 52 | 50 | 60 | 70 | 10 | 13 | 170 | 0.00 | 0.18 | -1.0 | 46 |
| 08/30 23:00 | 51 | 49 | 67 | 73 | 3 | 11 | 98 | 0.00 | 0.18 | -0.5 | 46 |
| 08/30 22:00 | 50 | 49 | 69 | 74 | 0 | 0 | 123 | 0.00 | 0.18 | -0.9 | 46 |
| 08/30 21:00 | 48 | 47 | 76 | 80 | 6 | 15 | 302 | 0.00 | 0.18 | -0.8 | 45 |
| 08/30 20:00 | 44 | 46 | 97 | 80 | 11 | 20 | 290 | 0.00 | 0.18 | -0.9 | 46 |
| 08/30 19:00 | 48 | 49 | 79 | 74 | 13 | 21 | 281 | 0.00 | 0.18 | -1.0 | 49 |
| 08/30 18:00 | 49 | 51 | 76 | 69 | 12 | 20 | 274 | 0.00 | 0.18 | -0.9 | 54 |
| 08/30 17:00 | 52 | 54 | 68 | 61 | 13 | 20 | 272 | 0.00 | 0.18 | -1.2 | 67 |
| 08/30 16:00 | 51 | 53 | 70 | 64 | 10 | 16 | 269 | 0.00 | 0.18 | -1.1 | 58 |
| 08/30 15:00 | 53 | 52 | 65 | 66 | 9 | 15 | 267 | 0.00 | 0.18 | -1.4 | 63 |
| 08/30 14:00 | 50 | 52 | 68 | 70 | 10 | 17 | 272 | 0.00 | 0.18 | -1.2 | 65 |
| 08/30 13:00 | 48 | 49 | 71 | 74 | 12 | 17 | 276 | 0.00 | 0.18 | -1.4 | 64 |
| 08/30 12:00 | 44 | 46 | 85 | 81 | 9 | 17 | 280 | 0.00 | 0.18 | -1.0 | 61 |
| 08/30 11:00 | 40 | 43 | 98 | 82 | 5 | 13 | 310 | 0.00 | 0.18 | -1.3 | 57 |
| 08/30 10:00 | 38 | 40 | 100 | 92 | 9 | 19 | 305 | 0.00 | 0.18 | -1.4 | 44 |
| 08/30 09:00 | 35 | 37 | 100 | 96 | 9 | 19 | 283 | 0.00 | 0.18 | -1.0 | 43 |
| 08/30 08:00 | 34 | 37 | 100 | 96 | 8 | 14 | 279 | 0.00 | 0.18 | -1.5 | 39 |
| 08/30 07:00 | 34 | 36 | 100 | 96 | 9 | 14 | 271 | 0.00 | 0.18 | 0.9 | 36 |
| 08/30 06:00 | 34 | 36 | 100 | 96 | 9 | 14 | 254 | 0.00 | 0.18 | 0.4 | 37 |
| 08/30 05:00 | 34 | 36 | 100 | 96 | 13 | 22 | 271 | 0.00 | 0.18 | -0.2 | 37 |
| 08/30 04:00 | 35 | 37 | 100 | 96 | 11 | 16 | 259 | 0.00 | 0.18 | -1.1 | 37 |
| 08/30 03:00 | 35 | 37 | 100 | 96 | 8 | 13 | 259 | 0.00 | 0.18 | -0.3 | 38 |
| 08/30 02:00 | 36 | 38 | 100 | 95 | 8 | 14 | 247 | 0.00 | 0.18 | -0.9 | 38 |
| 08/30 01:00 | 36 | 38 | 100 | 95 | 11 | 21 | 207 | 0.00 | 0.18 | -0.5 | 39 |
| 08/30 00:00 | 36 | 39 | 100 | 95 | 12 | 22 | 210 | 0.00 | 0.18 | -0.4 | 39 |
| 08/29 23:00 | 37 | 39 | 100 | 95 | 9 | 16 | 218 | 0.00 | 0.18 | -1.3 | 40 |
| 08/29 22:00 | 36 | 39 | 100 | 95 | 9 | 15 | 241 | 0.00 | 0.18 | -0.5 | 40 |
| 08/29 21:00 | 37 | 40 | 100 | 95 | 12 | 16 | 243 | 0.00 | 0.18 | -0.3 | 40 |
| 08/29 20:00 | 37 | 40 | 100 | 94 | 12 | 22 | 246 | 0.00 | 0.18 | -0.5 | 40 |
| 08/29 19:00 | 37 | 40 | 99 | 92 | 11 | 20 | 274 | 0.00 | 0.18 | -1.6 | 42 |
| 08/29 18:00 | 37 | 40 | 100 | 93 | 11 | 27 | 250 | 0.00 | 0.18 | -1.6 | 41 |
| 08/29 17:00 | 38 | 41 | 97 | 92 | 9 | 16 | 267 | 0.00 | 0.18 | -1.0 | 44 |
| 08/29 16:00 | 38 | 41 | 100 | 93 | 11 | 21 | 218 | 0.00 | 0.18 | -0.7 | 44 |
| 08/29 15:00 | 42 | 41 | 84 | 91 | 12 | 21 | 231 | 0.00 | 0.18 | -1.6 | 48 |
| 08/29 14:00 | 39 | 42 | 98 | 90 | 12 | 23 | 235 | 0.00 | 0.18 | -1.1 | 50 |
| 08/29 13:00 | 39 | 40 | 100 | 90 | 7 | 16 | 252 | 0.00 | 0.18 | -1.2 | 49 |
| 08/29 12:00 | 37 | 39 | 100 | 88 | 10 | 17 | 277 | 0.00 | 0.18 | -0.4 | 45 |
| 08/29 11:00 | 34 | 37 | 100 | 89 | 13 | 24 | 273 | 0.01 | 0.18 | -1.0 | 40 |
| 08/29 10:00 | 35 | 37 | 100 | 95 | 13 | 22 | 251 | 0.00 | 0.17 | 0.4 | 40 |
| 08/29 09:00 | 34 | 36 | 100 | 95 | 18 | 29 | 258 | 0.09 | 0.17 | -0.9 | 38 |
| 08/29 08:00 | 33 | 36 | 100 | 94 | 16 | 28 | 235 | 0.08 | 0.08 | -0.2 | 37 |
| 08/29 07:00 | 35 | 37 | 100 | 95 | 10 | 15 | 232 | 0.00 | 0.00 | -1.3 | 37 |
| 08/29 06:00 | 35 | 37 | 100 | 95 | 10 | 17 | 256 | 0.00 | 0.00 | -1.4 | 38 |
| 08/29 05:00 | 36 | 38 | 100 | 95 | 8 | 15 | 214 | 0.00 | 0.00 | -1.1 | 39 |
| 08/29 04:00 | 37 | 39 | 100 | 94 | 11 | 24 | 225 | 0.00 | 0.00 | -1.2 | 40 |
| 08/29 03:00 | 37 | 40 | 100 | 94 | 12 | 27 | 209 | 0.00 | 0.00 | -0.9 | 40 |
| 08/29 02:00 | 38 | 40 | 100 | 94 | 7 | 18 | 211 | 0.00 | 0.00 | -0.7 | 41 |
| 08/29 01:00 | 39 | 41 | 100 | 93 | 8 | 21 | 216 | 0.00 | 0.00 | -0.7 | 42 |
| 08/29 00:00 | 39 | 42 | 100 | 93 | 10 | 18 | 210 | 0.00 | 0.00 | -0.9 | 43 |
| 08/28 23:00 | 40 | 43 | 100 | 92 | 8 | 16 | 202 | 0.00 | 0.00 | -0.6 | 44 |
| 08/28 22:00 | 42 | 44 | 100 | 90 | 7 | 15 | 227 | 0.00 | 0.00 | -0.8 | 45 |
| 08/28 21:00 | 42 | 45 | 100 | 89 | 9 | 18 | 234 | 0.00 | 0.00 | -0.7 | 46 |
| 08/28 20:00 | 43 | 46 | 100 | 87 | 13 | 19 | 251 | 0.00 | 0.00 | -0.6 | 46 |
| 08/28 19:00 | 46 | 48 | 91 | 77 | 14 | 24 | 243 | 0.00 | 0.00 | -1.0 | 49 |
| 08/28 18:00 | 48 | 51 | 89 | 71 | 14 | 24 | 235 | 0.00 | 0.00 | -1.4 | 54 |
| 08/28 17:00 | 50 | 56 | 77 | 59 | 12 | 21 | 228 | 0.00 | 0.00 | -0.4 | 70 |
| 08/28 16:00 | 51 | 57 | 72 | 56 | 11 | 22 | 226 | 0.00 | 0.00 | -1.2 | 65 |
| 08/28 15:00 | 52 | 57 | 68 | 55 | 8 | 20 | 233 | 0.00 | 0.00 | -1.0 | 75 |
| 08/28 14:00 | 53 | 59 | 64 | 56 | 9 | 17 | 222 | 0.00 | 0.00 | -1.6 | 77 |
| 08/28 13:00 | 50 | 55 | 72 | 64 | 9 | 14 | 216 | 0.00 | 0.00 | -1.2 | 72 |
| 08/28 12:00 | 47 | 52 | 81 | 70 | 5 | 11 | 236 | 0.00 | 0.00 | -1.0 | 71 |
| 08/28 11:00 | 46 | 47 | 83 | 81 | 3 | 15 | 268 | 0.00 | 0.00 | -0.6 | 62 |
| 08/28 10:00 | 43 | 46 | 93 | 86 | 2 | 11 | 303 | 0.00 | 0.00 | -1.3 | 52 |
| 08/28 09:00 | 48 | 44 | 55 | 89 | 2 | 8 | 327 | 0.00 | 0.00 | -1.0 | 49 |
| 08/28 08:00 | 46 | 42 | 53 | 93 | 8 | 11 | 308 | 0.00 | 0.00 | -0.9 | 44 |
| 08/28 07:00 | 45 | 41 | 63 | 93 | 9 | 15 | 297 | 0.00 | 0.00 | -0.5 | 42 |
| 08/28 06:00 | 42 | 41 | 91 | 93 | 9 | 13 | 294 | 0.00 | 0.00 | -0.8 | 41 |
| 08/28 05:00 | 40 | 42 | 100 | 90 | 2 | 11 | 278 | 0.00 | 0.00 | -0.7 | 41 |
| 08/28 04:00 | 40 | 43 | 100 | 90 | 1 | 8 | 259 | 0.00 | 0.00 | -0.3 | 43 |
| 08/28 03:00 | 41 | 43 | 100 | 91 | 8 | 12 | 283 | 0.00 | 0.00 | -0.3 | 44 |
| 08/28 02:00 | 41 | 44 | 100 | 89 | 8 | 12 | 279 | 0.00 | 0.00 | -0.8 | 44 |
| 08/28 01:00 | 41 | 44 | 100 | 89 | 1 | 8 | 264 | 0.00 | 0.00 | -1.3 | 45 |
| 08/28 00:00 | 42 | 45 | 100 | 91 | 6 | 15 | 270 | 0.00 | 0.00 | -0.9 | 45 |
| 08/27 23:00 | 42 | 45 | 100 | 89 | 13 | 20 | 287 | 0.00 | 0.00 | -0.9 | 45 |
| 08/27 22:00 | 42 | 46 | 100 | 89 | 9 | 16 | 265 | 0.00 | 0.00 | -0.7 | 46 |
| 08/27 21:00 | 43 | 47 | 100 | 86 | 8 | 12 | 259 | 0.00 | 0.00 | -0.5 | 47 |
| 08/27 20:00 | 44 | 48 | 100 | 81 | 10 | 16 | 219 | 0.00 | 0.00 | -1.0 | 48 |
| 08/27 19:00 | 45 | 49 | 93 | 76 | 11 | 18 | 219 | 0.00 | 0.00 | -0.4 | 51 |

